sensor_id;sensor_type;location;lat;lon;timestamp;P1;durP1;ratioP1;P2;durP2;ratioP2
14526;SDS011;7350;51.208;4.238;2023-02-10T00:02:00;10.13;;;9.13;;
14526;SDS011;7350;51.208;4.238;2023-02-10T00:04:27;10.65;;;9.65;;
14526;SDS011;7350;51.208;4.238;2023-02-10T00:06:54;10.75;;;9.65;;
14526;SDS011;7350;51.208;4.238;2023-02-10T00:09:22;10.48;;;9.40;;
14526;SDS011;7350;51.208;4.238;2023-02-10T00:11:49;10.15;;;9.20;;
14526;SDS011;7350;51.208;4.238;2023-02-10T00:14:26;10.23;;;9.07;;
14526;SDS011;7350;51.208;4.238;2023-02-10T00:16:54;10.75;;;9.65;;
14526;SDS011;7350;51.208;4.238;2023-02-10T00:19:22;10.23;;;9.27;;
14526;SDS011;7350;51.208;4.238;2023-02-10T00:21:50;10.48;;;9.48;;
14526;SDS011;7350;51.208;4.238;2023-02-10T00:24:18;11.25;;;10.10;;
14526;SDS011;7350;51.208;4.238;2023-02-10T00:26:47;11.18;;;9.80;;
14526;SDS011;7350;51.208;4.238;2023-02-10T00:29:14;12.05;;;9.75;;
14526;SDS011;7350;51.208;4.238;2023-02-10T00:31:41;10.57;;;9.48;;
14526;SDS011;7350;51.208;4.238;2023-02-10T00:34:10;10.85;;;9.75;;
14526;SDS011;7350;51.208;4.238;2023-02-10T00:36:37;11.10;;;10.00;;
14526;SDS011;7350;51.208;4.238;2023-02-10T00:39:04;10.88;;;9.77;;
14526;SDS011;7350;51.208;4.238;2023-02-10T00:41:31;11.02;;;9.90;;
14526;SDS011;7350;51.208;4.238;2023-02-10T00:44:00;11.43;;;10.10;;
14526;SDS011;7350;51.208;4.238;2023-02-10T00:46:27;11.55;;;10.35;;
14526;SDS011;7350;51.208;4.238;2023-02-10T00:48:54;10.60;;;9.60;;
14526;SDS011;7350;51.208;4.238;2023-02-10T00:51:21;10.70;;;9.70;;
14526;SDS011;7350;51.208;4.238;2023-02-10T00:53:47;10.52;;;9.43;;
14526;SDS011;7350;51.208;4.238;2023-02-10T00:56:16;11.20;;;10.10;;
14526;SDS011;7350;51.208;4.238;2023-02-10T00:58:44;10.80;;;9.80;;
14526;SDS011;7350;51.208;4.238;2023-02-10T01:01:13;10.95;;;9.85;;
14526;SDS011;7350;51.208;4.238;2023-02-10T01:03:40;11.25;;;10.20;;
14526;SDS011;7350;51.208;4.238;2023-02-10T01:06:07;11.25;;;10.25;;
14526;SDS011;7350;51.208;4.238;2023-02-10T01:08:35;10.35;;;9.38;;
14526;SDS011;7350;51.208;4.238;2023-02-10T01:11:03;11.55;;;10.43;;
14526;SDS011;7350;51.208;4.238;2023-02-10T01:13:32;10.30;;;9.30;;
14526;SDS011;7350;51.208;4.238;2023-02-10T01:16:00;11.63;;;10.30;;
14526;SDS011;7350;51.208;4.238;2023-02-10T01:18:31;10.65;;;9.65;;
14526;SDS011;7350;51.208;4.238;2023-02-10T01:20:58;11.25;;;10.15;;
14526;SDS011;7350;51.208;4.238;2023-02-10T01:23:26;11.65;;;10.55;;
14526;SDS011;7350;51.208;4.238;2023-02-10T01:25:53;10.88;;;9.77;;
14526;SDS011;7350;51.208;4.238;2023-02-10T01:28:20;11.45;;;10.35;;
14526;SDS011;7350;51.208;4.238;2023-02-10T01:30:47;11.35;;;10.15;;
14526;SDS011;7350;51.208;4.238;2023-02-10T01:33:14;11.00;;;9.93;;
14526;SDS011;7350;51.208;4.238;2023-02-10T01:35:43;11.13;;;9.93;;
14526;SDS011;7350;51.208;4.238;2023-02-10T01:38:10;11.20;;;10.18;;
14526;SDS011;7350;51.208;4.238;2023-02-10T01:40:37;11.80;;;10.70;;
14526;SDS011;7350;51.208;4.238;2023-02-10T01:43:08;11.70;;;10.60;;
14526;SDS011;7350;51.208;4.238;2023-02-10T01:45:39;12.05;;;10.90;;
14526;SDS011;7350;51.208;4.238;2023-02-10T01:48:07;12.05;;;10.85;;
14526;SDS011;7350;51.208;4.238;2023-02-10T01:50:37;12.50;;;11.20;;
14526;SDS011;7350;51.208;4.238;2023-02-10T01:53:08;11.65;;;10.55;;
14526;SDS011;7350;51.208;4.238;2023-02-10T01:55:36;12.63;;;11.32;;
14526;SDS011;7350;51.208;4.238;2023-02-10T01:58:09;11.73;;;10.45;;
14526;SDS011;7350;51.208;4.238;2023-02-10T02:00:38;12.05;;;10.80;;
14526;SDS011;7350;51.208;4.238;2023-02-10T02:03:05;11.40;;;10.40;;
14526;SDS011;7350;51.208;4.238;2023-02-10T02:05:33;11.48;;;10.38;;
14526;SDS011;7350;51.208;4.238;2023-02-10T02:08:03;12.68;;;11.48;;
14526;SDS011;7350;51.208;4.238;2023-02-10T02:10:57;12.10;;;10.90;;
14526;SDS011;7350;51.208;4.238;2023-02-10T02:13:35;12.52;;;11.25;;
14526;SDS011;7350;51.208;4.238;2023-02-10T02:16:27;11.88;;;10.77;;
14526;SDS011;7350;51.208;4.238;2023-02-10T02:19:02;12.15;;;11.05;;
14526;SDS011;7350;51.208;4.238;2023-02-10T02:21:56;12.13;;;10.93;;
14526;SDS011;7350;51.208;4.238;2023-02-10T02:24:45;13.40;;;12.10;;
14526;SDS011;7350;51.208;4.238;2023-02-10T02:30:35;12.48;;;11.27;;
14526;SDS011;7350;51.208;4.238;2023-02-10T02:33:38;12.40;;;11.15;;
14526;SDS011;7350;51.208;4.238;2023-02-10T02:36:07;12.32;;;11.20;;
14526;SDS011;7350;51.208;4.238;2023-02-10T02:38:39;13.10;;;11.80;;
14526;SDS011;7350;51.208;4.238;2023-02-10T02:41:07;12.65;;;11.45;;
14526;SDS011;7350;51.208;4.238;2023-02-10T02:43:34;13.60;;;12.23;;
14526;SDS011;7350;51.208;4.238;2023-02-10T02:46:04;12.85;;;11.65;;
14526;SDS011;7350;51.208;4.238;2023-02-10T02:48:42;12.48;;;11.38;;
14526;SDS011;7350;51.208;4.238;2023-02-10T02:51:23;13.48;;;12.18;;
14526;SDS011;7350;51.208;4.238;2023-02-10T02:53:58;13.43;;;12.07;;
14526;SDS011;7350;51.208;4.238;2023-02-10T02:56:37;13.20;;;11.90;;
14526;SDS011;7350;51.208;4.238;2023-02-10T02:59:10;13.48;;;12.18;;
14526;SDS011;7350;51.208;4.238;2023-02-10T03:01:44;13.55;;;12.35;;
14526;SDS011;7350;51.208;4.238;2023-02-10T03:04:18;13.82;;;12.52;;
14526;SDS011;7350;51.208;4.238;2023-02-10T03:06:45;14.27;;;12.77;;
14526;SDS011;7350;51.208;4.238;2023-02-10T03:09:12;13.75;;;12.35;;
14526;SDS011;7350;51.208;4.238;2023-02-10T03:11:40;14.25;;;12.85;;
14526;SDS011;7350;51.208;4.238;2023-02-10T03:14:07;14.02;;;12.63;;
14526;SDS011;7350;51.208;4.238;2023-02-10T03:16:34;13.88;;;12.40;;
14526;SDS011;7350;51.208;4.238;2023-02-10T03:19:01;14.70;;;13.30;;
14526;SDS011;7350;51.208;4.238;2023-02-10T03:21:29;13.77;;;12.55;;
14526;SDS011;7350;51.208;4.238;2023-02-10T03:23:56;14.02;;;12.63;;
14526;SDS011;7350;51.208;4.238;2023-02-10T03:26:25;14.05;;;12.65;;
14526;SDS011;7350;51.208;4.238;2023-02-10T03:28:53;14.20;;;12.90;;
14526;SDS011;7350;51.208;4.238;2023-02-10T03:31:20;15.40;;;13.80;;
14526;SDS011;7350;51.208;4.238;2023-02-10T03:33:47;15.10;;;13.60;;
14526;SDS011;7350;51.208;4.238;2023-02-10T03:36:14;14.32;;;13.05;;
14526;SDS011;7350;51.208;4.238;2023-02-10T03:38:43;14.90;;;13.50;;
14526;SDS011;7350;51.208;4.238;2023-02-10T03:41:10;14.75;;;13.35;;
14526;SDS011;7350;51.208;4.238;2023-02-10T03:43:38;14.43;;;13.05;;
14526;SDS011;7350;51.208;4.238;2023-02-10T03:46:06;14.68;;;13.38;;
14526;SDS011;7350;51.208;4.238;2023-02-10T03:48:33;15.15;;;13.75;;
14526;SDS011;7350;51.208;4.238;2023-02-10T03:51:00;14.20;;;12.90;;
14526;SDS011;7350;51.208;4.238;2023-02-10T03:53:30;15.70;;;14.20;;
14526;SDS011;7350;51.208;4.238;2023-02-10T03:55:59;15.48;;;14.07;;
14526;SDS011;7350;51.208;4.238;2023-02-10T03:58:26;14.95;;;13.48;;
14526;SDS011;7350;51.208;4.238;2023-02-10T04:00:53;15.07;;;13.68;;
14526;SDS011;7350;51.208;4.238;2023-02-10T04:03:20;16.00;;;14.50;;
14526;SDS011;7350;51.208;4.238;2023-02-10T04:05:47;15.65;;;14.25;;
14526;SDS011;7350;51.208;4.238;2023-02-10T04:08:14;14.95;;;13.48;;
14526;SDS011;7350;51.208;4.238;2023-02-10T04:10:42;14.52;;;13.13;;
14526;SDS011;7350;51.208;4.238;2023-02-10T04:13:10;14.75;;;13.40;;
14526;SDS011;7350;51.208;4.238;2023-02-10T04:15:37;15.23;;;13.82;;
14526;SDS011;7350;51.208;4.238;2023-02-10T04:18:04;14.45;;;13.15;;
14526;SDS011;7350;51.208;4.238;2023-02-10T04:20:31;15.73;;;14.23;;
14526;SDS011;7350;51.208;4.238;2023-02-10T04:22:58;14.07;;;12.68;;
14526;SDS011;7350;51.208;4.238;2023-02-10T04:25:25;14.10;;;12.85;;
14526;SDS011;7350;51.208;4.238;2023-02-10T04:27:52;13.75;;;12.45;;
14526;SDS011;7350;51.208;4.238;2023-02-10T04:30:20;13.55;;;12.35;;
14526;SDS011;7350;51.208;4.238;2023-02-10T04:32:47;13.05;;;11.85;;
14526;SDS011;7350;51.208;4.238;2023-02-10T04:35:14;14.55;;;13.25;;
14526;SDS011;7350;51.208;4.238;2023-02-10T04:37:41;14.05;;;12.75;;
14526;SDS011;7350;51.208;4.238;2023-02-10T04:40:09;14.10;;;12.80;;
14526;SDS011;7350;51.208;4.238;2023-02-10T04:42:36;14.07;;;12.77;;
14526;SDS011;7350;51.208;4.238;2023-02-10T04:45:03;14.55;;;13.23;;
14526;SDS011;7350;51.208;4.238;2023-02-10T04:47:32;15.00;;;13.60;;
14526;SDS011;7350;51.208;4.238;2023-02-10T04:49:59;14.20;;;12.90;;
14526;SDS011;7350;51.208;4.238;2023-02-10T04:52:26;13.18;;;11.90;;
14526;SDS011;7350;51.208;4.238;2023-02-10T04:54:53;13.63;;;12.43;;
14526;SDS011;7350;51.208;4.238;2023-02-10T04:57:20;12.70;;;11.50;;
14526;SDS011;7350;51.208;4.238;2023-02-10T04:59:47;13.88;;;11.57;;
14526;SDS011;7350;51.208;4.238;2023-02-10T05:02:14;12.93;;;11.73;;
14526;SDS011;7350;51.208;4.238;2023-02-10T05:04:42;12.80;;;11.63;;
14526;SDS011;7350;51.208;4.238;2023-02-10T05:07:09;11.93;;;10.73;;
14526;SDS011;7350;51.208;4.238;2023-02-10T05:09:36;13.00;;;11.57;;
14526;SDS011;7350;51.208;4.238;2023-02-10T05:12:03;11.88;;;10.77;;
14526;SDS011;7350;51.208;4.238;2023-02-10T05:14:30;11.57;;;10.38;;
14526;SDS011;7350;51.208;4.238;2023-02-10T05:16:57;12.02;;;10.80;;
14526;SDS011;7350;51.208;4.238;2023-02-10T05:19:24;12.48;;;11.20;;
14526;SDS011;7350;51.208;4.238;2023-02-10T05:21:52;11.88;;;10.48;;
14526;SDS011;7350;51.208;4.238;2023-02-10T05:24:19;12.77;;;11.43;;
14526;SDS011;7350;51.208;4.238;2023-02-10T05:26:46;12.73;;;11.43;;
14526;SDS011;7350;51.208;4.238;2023-02-10T05:29:13;11.88;;;10.40;;
14526;SDS011;7350;51.208;4.238;2023-02-10T05:31:40;13.68;;;10.90;;
14526;SDS011;7350;51.208;4.238;2023-02-10T05:34:07;13.60;;;11.27;;
14526;SDS011;7350;51.208;4.238;2023-02-10T05:36:34;13.32;;;11.45;;
14526;SDS011;7350;51.208;4.238;2023-02-10T05:39:02;12.60;;;10.60;;
14526;SDS011;7350;51.208;4.238;2023-02-10T05:41:47;13.30;;;10.50;;
14526;SDS011;7350;51.208;4.238;2023-02-10T05:44:14;11.52;;;10.30;;
14526;SDS011;7350;51.208;4.238;2023-02-10T05:46:41;14.32;;;11.60;;
14526;SDS011;7350;51.208;4.238;2023-02-10T05:49:08;11.63;;;10.43;;
14526;SDS011;7350;51.208;4.238;2023-02-10T05:51:35;12.55;;;10.73;;
14526;SDS011;7350;51.208;4.238;2023-02-10T05:54:03;15.00;;;10.85;;
14526;SDS011;7350;51.208;4.238;2023-02-10T05:56:32;13.02;;;10.80;;
14526;SDS011;7350;51.208;4.238;2023-02-10T05:59:00;13.60;;;10.93;;
14526;SDS011;7350;51.208;4.238;2023-02-10T06:01:27;14.45;;;11.70;;
14526;SDS011;7350;51.208;4.238;2023-02-10T06:03:54;11.57;;;10.27;;
14526;SDS011;7350;51.208;4.238;2023-02-10T06:06:21;11.27;;;10.18;;
14526;SDS011;7350;51.208;4.238;2023-02-10T06:08:48;11.77;;;10.57;;
14526;SDS011;7350;51.208;4.238;2023-02-10T06:11:17;12.45;;;10.90;;
14526;SDS011;7350;51.208;4.238;2023-02-10T06:13:44;13.48;;;10.57;;
14526;SDS011;7350;51.208;4.238;2023-02-10T06:16:11;12.80;;;11.07;;
14526;SDS011;7350;51.208;4.238;2023-02-10T06:18:37;12.73;;;11.30;;
14526;SDS011;7350;51.208;4.238;2023-02-10T06:21:05;13.25;;;11.00;;
14526;SDS011;7350;51.208;4.238;2023-02-10T06:23:32;13.13;;;11.65;;
14526;SDS011;7350;51.208;4.238;2023-02-10T06:25:59;13.35;;;11.57;;
14526;SDS011;7350;51.208;4.238;2023-02-10T06:28:27;15.55;;;12.88;;
14526;SDS011;7350;51.208;4.238;2023-02-10T06:30:54;16.48;;;14.05;;
14526;SDS011;7350;51.208;4.238;2023-02-10T06:33:21;15.43;;;13.27;;
14526;SDS011;7350;51.208;4.238;2023-02-10T06:35:48;15.85;;;12.00;;
14526;SDS011;7350;51.208;4.238;2023-02-10T06:38:15;13.88;;;12.38;;
14526;SDS011;7350;51.208;4.238;2023-02-10T06:40:43;16.45;;;13.40;;
14526;SDS011;7350;51.208;4.238;2023-02-10T06:43:10;15.27;;;12.88;;
14526;SDS011;7350;51.208;4.238;2023-02-10T06:45:38;14.10;;;12.48;;
14526;SDS011;7350;51.208;4.238;2023-02-10T06:48:05;15.70;;;12.90;;
14526;SDS011;7350;51.208;4.238;2023-02-10T06:50:32;15.90;;;12.82;;
14526;SDS011;7350;51.208;4.238;2023-02-10T06:52:59;17.13;;;13.85;;
14526;SDS011;7350;51.208;4.238;2023-02-10T06:55:26;17.27;;;13.32;;
14526;SDS011;7350;51.208;4.238;2023-02-10T06:57:53;17.42;;;13.90;;
14526;SDS011;7350;51.208;4.238;2023-02-10T07:00:24;16.75;;;13.52;;
14526;SDS011;7350;51.208;4.238;2023-02-10T07:02:52;17.52;;;13.45;;
14526;SDS011;7350;51.208;4.238;2023-02-10T07:05:19;19.65;;;13.18;;
14526;SDS011;7350;51.208;4.238;2023-02-10T07:07:47;17.23;;;14.32;;
14526;SDS011;7350;51.208;4.238;2023-02-10T07:10:15;21.17;;;15.05;;
14526;SDS011;7350;51.208;4.238;2023-02-10T07:12:43;21.20;;;13.57;;
14526;SDS011;7350;51.208;4.238;2023-02-10T07:15:12;19.13;;;14.30;;
14526;SDS011;7350;51.208;4.238;2023-02-10T07:17:39;20.02;;;14.98;;
14526;SDS011;7350;51.208;4.238;2023-02-10T07:20:08;23.52;;;15.07;;
14526;SDS011;7350;51.208;4.238;2023-02-10T07:22:36;18.50;;;14.35;;
14526;SDS011;7350;51.208;4.238;2023-02-10T07:25:03;20.88;;;14.65;;
14526;SDS011;7350;51.208;4.238;2023-02-10T07:27:30;21.50;;;15.63;;
14526;SDS011;7350;51.208;4.238;2023-02-10T07:29:57;18.15;;;15.00;;
14526;SDS011;7350;51.208;4.238;2023-02-10T07:32:24;18.10;;;15.07;;
14526;SDS011;7350;51.208;4.238;2023-02-10T07:34:51;16.92;;;15.10;;
14526;SDS011;7350;51.208;4.238;2023-02-10T07:37:20;22.23;;;16.05;;
14526;SDS011;7350;51.208;4.238;2023-02-10T07:39:47;18.90;;;15.45;;
14526;SDS011;7350;51.208;4.238;2023-02-10T07:42:14;19.67;;;15.73;;
14526;SDS011;7350;51.208;4.238;2023-02-10T07:44:40;18.27;;;15.98;;
14526;SDS011;7350;51.208;4.238;2023-02-10T07:47:09;18.45;;;14.93;;
14526;SDS011;7350;51.208;4.238;2023-02-10T07:49:36;17.58;;;15.52;;
14526;SDS011;7350;51.208;4.238;2023-02-10T07:52:03;16.23;;;14.45;;
14526;SDS011;7350;51.208;4.238;2023-02-10T07:54:32;17.83;;;14.48;;
14526;SDS011;7350;51.208;4.238;2023-02-10T07:56:59;17.42;;;15.07;;
14526;SDS011;7350;51.208;4.238;2023-02-10T07:59:26;19.40;;;16.42;;
14526;SDS011;7350;51.208;4.238;2023-02-10T08:01:53;16.88;;;15.07;;
14526;SDS011;7350;51.208;4.238;2023-02-10T08:04:20;16.30;;;14.50;;
14526;SDS011;7350;51.208;4.238;2023-02-10T08:06:47;17.60;;;15.68;;
14526;SDS011;7350;51.208;4.238;2023-02-10T08:09:14;18.85;;;15.52;;
14526;SDS011;7350;51.208;4.238;2023-02-10T08:11:43;17.40;;;14.57;;
14526;SDS011;7350;51.208;4.238;2023-02-10T08:14:10;15.75;;;14.10;;
14526;SDS011;7350;51.208;4.238;2023-02-10T08:16:37;16.83;;;15.00;;
14526;SDS011;7350;51.208;4.238;2023-02-10T08:19:04;17.08;;;15.27;;
14526;SDS011;7350;51.208;4.238;2023-02-10T08:21:31;18.50;;;15.68;;
14526;SDS011;7350;51.208;4.238;2023-02-10T08:23:58;18.35;;;15.50;;
14526;SDS011;7350;51.208;4.238;2023-02-10T08:26:25;16.83;;;15.13;;
14526;SDS011;7350;51.208;4.238;2023-02-10T08:28:54;16.77;;;15.00;;
14526;SDS011;7350;51.208;4.238;2023-02-10T08:31:23;17.75;;;15.95;;
14526;SDS011;7350;51.208;4.238;2023-02-10T08:33:50;16.65;;;14.95;;
14526;SDS011;7350;51.208;4.238;2023-02-10T08:36:18;18.15;;;15.90;;
14526;SDS011;7350;51.208;4.238;2023-02-10T08:38:46;16.83;;;15.02;;
14526;SDS011;7350;51.208;4.238;2023-02-10T08:41:15;16.90;;;15.13;;
14526;SDS011;7350;51.208;4.238;2023-02-10T08:43:42;16.98;;;15.25;;
14526;SDS011;7350;51.208;4.238;2023-02-10T08:46:10;17.15;;;15.45;;
14526;SDS011;7350;51.208;4.238;2023-02-10T08:48:37;16.95;;;15.20;;
14526;SDS011;7350;51.208;4.238;2023-02-10T08:51:05;17.27;;;15.48;;
14526;SDS011;7350;51.208;4.238;2023-02-10T08:53:33;16.77;;;15.00;;
14526;SDS011;7350;51.208;4.238;2023-02-10T08:56:01;17.02;;;15.15;;
14526;SDS011;7350;51.208;4.238;2023-02-10T08:58:30;17.67;;;15.70;;
14526;SDS011;7350;51.208;4.238;2023-02-10T09:00:57;17.08;;;15.27;;
14526;SDS011;7350;51.208;4.238;2023-02-10T09:03:25;17.63;;;14.88;;
14526;SDS011;7350;51.208;4.238;2023-02-10T09:05:53;17.83;;;15.27;;
14526;SDS011;7350;51.208;4.238;2023-02-10T09:08:20;17.08;;;15.30;;
14526;SDS011;7350;51.208;4.238;2023-02-10T09:10:47;17.52;;;15.68;;
14526;SDS011;7350;51.208;4.238;2023-02-10T09:13:15;15.93;;;14.23;;
14526;SDS011;7350;51.208;4.238;2023-02-10T09:15:42;16.63;;;14.80;;
14526;SDS011;7350;51.208;4.238;2023-02-10T09:18:09;18.05;;;16.15;;
14526;SDS011;7350;51.208;4.238;2023-02-10T09:20:38;17.13;;;15.43;;
14526;SDS011;7350;51.208;4.238;2023-02-10T09:23:05;18.10;;;16.25;;
14526;SDS011;7350;51.208;4.238;2023-02-10T09:25:32;15.43;;;13.93;;
14526;SDS011;7350;51.208;4.238;2023-02-10T09:27:59;16.65;;;14.93;;
14526;SDS011;7350;51.208;4.238;2023-02-10T09:30:26;15.68;;;14.10;;
14526;SDS011;7350;51.208;4.238;2023-02-10T09:32:53;16.58;;;14.82;;
14526;SDS011;7350;51.208;4.238;2023-02-10T09:35:21;16.60;;;14.80;;
14526;SDS011;7350;51.208;4.238;2023-02-10T09:37:49;15.65;;;14.07;;
14526;SDS011;7350;51.208;4.238;2023-02-10T09:40:17;16.30;;;14.73;;
14526;SDS011;7350;51.208;4.238;2023-02-10T09:42:52;16.55;;;14.85;;
14526;SDS011;7350;51.208;4.238;2023-02-10T09:45:31;16.25;;;14.55;;
14526;SDS011;7350;51.208;4.238;2023-02-10T09:48:05;15.30;;;13.63;;
14526;SDS011;7350;51.208;4.238;2023-02-10T09:50:47;16.50;;;14.80;;
14526;SDS011;7350;51.208;4.238;2023-02-10T09:53:23;17.08;;;14.57;;
14526;SDS011;7350;51.208;4.238;2023-02-10T09:55:54;14.95;;;13.50;;
14526;SDS011;7350;51.208;4.238;2023-02-10T09:58:24;17.05;;;15.35;;
14526;SDS011;7350;51.208;4.238;2023-02-10T10:00:58;15.70;;;14.13;;
14526;SDS011;7350;51.208;4.238;2023-02-10T10:03:33;16.55;;;14.55;;
14526;SDS011;7350;51.208;4.238;2023-02-10T10:06:08;16.13;;;14.43;;
14526;SDS011;7350;51.208;4.238;2023-02-10T10:08:45;16.63;;;14.52;;
14526;SDS011;7350;51.208;4.238;2023-02-10T10:11:25;16.00;;;14.40;;
14526;SDS011;7350;51.208;4.238;2023-02-10T10:13:55;16.23;;;14.52;;
14526;SDS011;7350;51.208;4.238;2023-02-10T10:16:43;16.02;;;14.30;;
14526;SDS011;7350;51.208;4.238;2023-02-10T10:19:25;15.75;;;14.18;;
14526;SDS011;7350;51.208;4.238;2023-02-10T10:22:01;15.68;;;14.18;;
14526;SDS011;7350;51.208;4.238;2023-02-10T10:24:42;15.75;;;14.25;;
14526;SDS011;7350;51.208;4.238;2023-02-10T10:27:19;15.93;;;14.05;;
14526;SDS011;7350;51.208;4.238;2023-02-10T10:29:56;16.42;;;14.73;;
14526;SDS011;7350;51.208;4.238;2023-02-10T10:32:32;16.92;;;15.18;;
14526;SDS011;7350;51.208;4.238;2023-02-10T10:35:10;16.73;;;15.02;;
14526;SDS011;7350;51.208;4.238;2023-02-10T10:37:41;16.90;;;15.20;;
14526;SDS011;7350;51.208;4.238;2023-02-10T10:40:13;15.88;;;14.30;;
14526;SDS011;7350;51.208;4.238;2023-02-10T10:42:43;16.40;;;14.70;;
14526;SDS011;7350;51.208;4.238;2023-02-10T10:45:13;15.95;;;14.40;;
14526;SDS011;7350;51.208;4.238;2023-02-10T10:47:43;16.02;;;14.52;;
14526;SDS011;7350;51.208;4.238;2023-02-10T10:50:14;15.75;;;14.25;;
14526;SDS011;7350;51.208;4.238;2023-02-10T10:52:44;16.95;;;15.15;;
14526;SDS011;7350;51.208;4.238;2023-02-10T10:55:18;17.17;;;15.48;;
14526;SDS011;7350;51.208;4.238;2023-02-10T10:57:49;16.00;;;14.30;;
14526;SDS011;7350;51.208;4.238;2023-02-10T11:00:18;16.27;;;14.70;;
14526;SDS011;7350;51.208;4.238;2023-02-10T11:02:51;16.77;;;14.98;;
14526;SDS011;7350;51.208;4.238;2023-02-10T11:05:19;16.00;;;14.30;;
14526;SDS011;7350;51.208;4.238;2023-02-10T11:07:47;16.50;;;14.73;;
14526;SDS011;7350;51.208;4.238;2023-02-10T11:10:27;15.85;;;14.30;;
14526;SDS011;7350;51.208;4.238;2023-02-10T11:12:57;15.65;;;14.05;;
14526;SDS011;7350;51.208;4.238;2023-02-10T11:15:29;16.23;;;14.63;;
14526;SDS011;7350;51.208;4.238;2023-02-10T11:17:59;16.23;;;14.60;;
14526;SDS011;7350;51.208;4.238;2023-02-10T11:20:28;15.07;;;13.52;;
14526;SDS011;7350;51.208;4.238;2023-02-10T11:22:57;15.38;;;13.93;;
14526;SDS011;7350;51.208;4.238;2023-02-10T11:25:29;16.08;;;14.40;;
14526;SDS011;7350;51.208;4.238;2023-02-10T11:27:59;14.98;;;13.48;;
14526;SDS011;7350;51.208;4.238;2023-02-10T11:30:28;15.52;;;13.98;;
14526;SDS011;7350;51.208;4.238;2023-02-10T11:32:57;16.25;;;14.60;;
14526;SDS011;7350;51.208;4.238;2023-02-10T11:35:26;16.77;;;14.45;;
14526;SDS011;7350;51.208;4.238;2023-02-10T11:37:56;15.55;;;14.05;;
14526;SDS011;7350;51.208;4.238;2023-02-10T11:40:27;16.05;;;14.38;;
14526;SDS011;7350;51.208;4.238;2023-02-10T11:42:57;15.70;;;14.20;;
14526;SDS011;7350;51.208;4.238;2023-02-10T11:45:25;15.27;;;13.70;;
14526;SDS011;7350;51.208;4.238;2023-02-10T11:48:00;16.42;;;14.70;;
14526;SDS011;7350;51.208;4.238;2023-02-10T11:50:31;16.15;;;14.45;;
14526;SDS011;7350;51.208;4.238;2023-02-10T11:52:59;16.08;;;14.38;;
14526;SDS011;7350;51.208;4.238;2023-02-10T11:55:30;16.48;;;14.77;;
14526;SDS011;7350;51.208;4.238;2023-02-10T11:58:06;15.13;;;13.52;;
14526;SDS011;7350;51.208;4.238;2023-02-10T12:01:11;15.25;;;13.32;;
14526;SDS011;7350;51.208;4.238;2023-02-10T12:03:45;15.57;;;13.95;;
14526;SDS011;7350;51.208;4.238;2023-02-10T12:06:19;15.25;;;13.75;;
14526;SDS011;7350;51.208;4.238;2023-02-10T12:08:52;15.43;;;13.82;;
14526;SDS011;7350;51.208;4.238;2023-02-10T12:11:31;15.50;;;13.90;;
14526;SDS011;7350;51.208;4.238;2023-02-10T12:14:21;16.15;;;14.45;;
14526;SDS011;7350;51.208;4.238;2023-02-10T12:16:59;15.27;;;13.70;;
14526;SDS011;7350;51.208;4.238;2023-02-10T12:19:34;15.52;;;14.02;;
14526;SDS011;7350;51.208;4.238;2023-02-10T12:22:10;15.43;;;13.90;;
14526;SDS011;7350;51.208;4.238;2023-02-10T12:24:49;15.23;;;13.63;;
14526;SDS011;7350;51.208;4.238;2023-02-10T12:27:30;16.27;;;14.05;;
14526;SDS011;7350;51.208;4.238;2023-02-10T12:30:08;15.32;;;13.75;;
14526;SDS011;7350;51.208;4.238;2023-02-10T12:32:50;14.50;;;13.00;;
14526;SDS011;7350;51.208;4.238;2023-02-10T12:35:29;14.77;;;13.27;;
14526;SDS011;7350;51.208;4.238;2023-02-10T12:38:10;14.57;;;13.05;;
14526;SDS011;7350;51.208;4.238;2023-02-10T12:40:58;14.88;;;13.27;;
14526;SDS011;7350;51.208;4.238;2023-02-10T12:43:37;14.50;;;13.00;;
14526;SDS011;7350;51.208;4.238;2023-02-10T12:46:25;13.95;;;12.52;;
14526;SDS011;7350;51.208;4.238;2023-02-10T12:49:05;14.77;;;13.27;;
14526;SDS011;7350;51.208;4.238;2023-02-10T12:51:45;14.57;;;13.07;;
14526;SDS011;7350;51.208;4.238;2023-02-10T12:54:21;15.02;;;13.52;;
14526;SDS011;7350;51.208;4.238;2023-02-10T12:56:54;14.40;;;12.85;;
14526;SDS011;7350;51.208;4.238;2023-02-10T12:59:26;15.30;;;12.85;;
14526;SDS011;7350;51.208;4.238;2023-02-10T13:01:56;15.15;;;13.55;;
14526;SDS011;7350;51.208;4.238;2023-02-10T13:04:27;14.45;;;12.93;;
14526;SDS011;7350;51.208;4.238;2023-02-10T13:06:59;15.00;;;13.43;;
14526;SDS011;7350;51.208;4.238;2023-02-10T13:09:30;14.05;;;12.65;;
14526;SDS011;7350;51.208;4.238;2023-02-10T13:12:09;14.65;;;13.15;;
14526;SDS011;7350;51.208;4.238;2023-02-10T13:14:42;14.40;;;12.93;;
14526;SDS011;7350;51.208;4.238;2023-02-10T13:17:11;14.80;;;13.30;;
14526;SDS011;7350;51.208;4.238;2023-02-10T13:19:39;14.48;;;12.45;;
14526;SDS011;7350;51.208;4.238;2023-02-10T13:22:17;14.10;;;12.05;;
14526;SDS011;7350;51.208;4.238;2023-02-10T13:24:54;14.05;;;12.55;;
14526;SDS011;7350;51.208;4.238;2023-02-10T13:27:30;14.32;;;12.82;;
14526;SDS011;7350;51.208;4.238;2023-02-10T13:30:15;13.13;;;11.82;;
14526;SDS011;7350;51.208;4.238;2023-02-10T13:32:56;13.95;;;12.45;;
14526;SDS011;7350;51.208;4.238;2023-02-10T13:35:28;14.13;;;12.63;;
14526;SDS011;7350;51.208;4.238;2023-02-10T13:37:57;13.57;;;12.18;;
14526;SDS011;7350;51.208;4.238;2023-02-10T13:40:32;14.43;;;12.10;;
14526;SDS011;7350;51.208;4.238;2023-02-10T13:43:17;14.13;;;12.63;;
14526;SDS011;7350;51.208;4.238;2023-02-10T13:45:55;14.23;;;12.15;;
14526;SDS011;7350;51.208;4.238;2023-02-10T13:48:23;15.07;;;12.13;;
14526;SDS011;7350;51.208;4.238;2023-02-10T13:50:55;12.88;;;11.52;;
14526;SDS011;7350;51.208;4.238;2023-02-10T13:53:26;13.35;;;11.88;;
14526;SDS011;7350;51.208;4.238;2023-02-10T13:56:04;15.13;;;11.95;;
14526;SDS011;7350;51.208;4.238;2023-02-10T13:58:47;13.43;;;12.02;;
14526;SDS011;7350;51.208;4.238;2023-02-10T14:01:31;13.18;;;11.73;;
14526;SDS011;7350;51.208;4.238;2023-02-10T14:03:59;13.95;;;12.18;;
14526;SDS011;7350;51.208;4.238;2023-02-10T14:06:35;14.30;;;12.70;;
14526;SDS011;7350;51.208;4.238;2023-02-10T14:09:04;13.50;;;12.10;;
14526;SDS011;7350;51.208;4.238;2023-02-10T14:11:43;13.52;;;12.02;;
14526;SDS011;7350;51.208;4.238;2023-02-10T14:14:18;12.65;;;11.32;;
14526;SDS011;7350;51.208;4.238;2023-02-10T14:16:49;13.40;;;11.77;;
14526;SDS011;7350;51.208;4.238;2023-02-10T14:19:21;13.88;;;12.25;;
14526;SDS011;7350;51.208;4.238;2023-02-10T14:21:50;12.98;;;11.68;;
14526;SDS011;7350;51.208;4.238;2023-02-10T14:24:22;12.38;;;10.98;;
14526;SDS011;7350;51.208;4.238;2023-02-10T14:26:51;13.57;;;11.88;;
14526;SDS011;7350;51.208;4.238;2023-02-10T14:29:20;13.68;;;12.15;;
14526;SDS011;7350;51.208;4.238;2023-02-10T14:31:52;13.43;;;11.85;;
14526;SDS011;7350;51.208;4.238;2023-02-10T14:34:25;13.07;;;11.68;;
14526;SDS011;7350;51.208;4.238;2023-02-10T14:36:53;12.55;;;11.25;;
14526;SDS011;7350;51.208;4.238;2023-02-10T14:39:22;13.23;;;11.65;;
14526;SDS011;7350;51.208;4.238;2023-02-10T14:41:51;12.15;;;10.82;;
14526;SDS011;7350;51.208;4.238;2023-02-10T14:44:21;12.65;;;11.35;;
14526;SDS011;7350;51.208;4.238;2023-02-10T14:46:53;13.18;;;11.82;;
14526;SDS011;7350;51.208;4.238;2023-02-10T14:49:20;12.85;;;11.55;;
14526;SDS011;7350;51.208;4.238;2023-02-10T14:51:48;12.40;;;11.07;;
14526;SDS011;7350;51.208;4.238;2023-02-10T14:54:16;13.38;;;11.45;;
14526;SDS011;7350;51.208;4.238;2023-02-10T14:56:52;12.63;;;11.25;;
14526;SDS011;7350;51.208;4.238;2023-02-10T14:59:20;13.80;;;11.43;;